Terminal Aerodrome Forecast
Issued by NWS

Home | Current Version | Previous Version | Graphics & Text | Print | Product List | Glossary On
Versions: 1 2 3 4 5 6 7 8 9 10 11 12 13 14 15 16 17 18 19 20
000
FTUS43 KOAX 251734
TAFCDR
TAF
KCDR 251734Z 2518/2618 03008KT P6SM -RA BKN025
     FM252200 36005KT P6SM VCSH SCT025 BKN035
     FM260500 31003KT 2SM BR OVC007
     FM261500 10005KT P6SM BKN025=

USA.gov is the U.S. government's official web portal to all federal, state and local government web resources and services.